sensor_id;sensor_type;location;lat;lon;timestamp;P1;durP1;ratioP1;P2;durP2;ratioP2
42514;SDS011;28144;49.920;18.730;2022-07-19T00:00:18;12.20;;;4.27;;
42514;SDS011;28144;49.920;18.730;2022-07-19T00:03:01;9.43;;;4.35;;
42514;SDS011;28144;49.920;18.730;2022-07-19T00:05:27;10.55;;;4.30;;
42514;SDS011;28144;49.920;18.730;2022-07-19T00:07:52;11.80;;;5.30;;
42514;SDS011;28144;49.920;18.730;2022-07-19T00:10:18;9.57;;;4.50;;
42514;SDS011;28144;49.920;18.730;2022-07-19T00:12:45;7.75;;;4.07;;
42514;SDS011;28144;49.920;18.730;2022-07-19T00:15:12;8.15;;;4.68;;
42514;SDS011;28144;49.920;18.730;2022-07-19T00:17:43;10.75;;;4.47;;
42514;SDS011;28144;49.920;18.730;2022-07-19T00:20:10;8.55;;;4.13;;
42514;SDS011;28144;49.920;18.730;2022-07-19T00:22:37;12.35;;;4.38;;
42514;SDS011;28144;49.920;18.730;2022-07-19T00:25:03;13.55;;;4.38;;
42514;SDS011;28144;49.920;18.730;2022-07-19T00:27:29;9.77;;;3.78;;
42514;SDS011;28144;49.920;18.730;2022-07-19T00:29:55;12.03;;;4.33;;
42514;SDS011;28144;49.920;18.730;2022-07-19T00:32:21;11.40;;;5.03;;
42514;SDS011;28144;49.920;18.730;2022-07-19T00:34:46;9.30;;;4.95;;
42514;SDS011;28144;49.920;18.730;2022-07-19T00:37:12;8.93;;;4.60;;
42514;SDS011;28144;49.920;18.730;2022-07-19T00:39:38;8.37;;;4.00;;
42514;SDS011;28144;49.920;18.730;2022-07-19T00:42:03;11.50;;;3.33;;
42514;SDS011;28144;49.920;18.730;2022-07-19T00:44:29;10.13;;;4.30;;
42514;SDS011;28144;49.920;18.730;2022-07-19T00:46:55;6.82;;;3.95;;
42514;SDS011;28144;49.920;18.730;2022-07-19T00:49:22;11.10;;;3.83;;
42514;SDS011;28144;49.920;18.730;2022-07-19T00:51:47;12.53;;;3.80;;
42514;SDS011;28144;49.920;18.730;2022-07-19T00:54:18;12.88;;;4.32;;
42514;SDS011;28144;49.920;18.730;2022-07-19T00:56:45;9.02;;;3.90;;
42514;SDS011;28144;49.920;18.730;2022-07-19T00:59:13;8.90;;;3.83;;
42514;SDS011;28144;49.920;18.730;2022-07-19T01:01:39;6.95;;;3.40;;
42514;SDS011;28144;49.920;18.730;2022-07-19T01:04:05;12.15;;;3.55;;
42514;SDS011;28144;49.920;18.730;2022-07-19T01:06:32;7.28;;;3.65;;
42514;SDS011;28144;49.920;18.730;2022-07-19T01:08:58;10.97;;;5.57;;
42514;SDS011;28144;49.920;18.730;2022-07-19T01:11:24;16.43;;;6.57;;
42514;SDS011;28144;49.920;18.730;2022-07-19T01:13:50;12.40;;;6.43;;
42514;SDS011;28144;49.920;18.730;2022-07-19T01:16:16;14.53;;;4.73;;
42514;SDS011;28144;49.920;18.730;2022-07-19T01:18:42;14.48;;;4.78;;
42514;SDS011;28144;49.920;18.730;2022-07-19T01:21:13;15.02;;;3.97;;
42514;SDS011;28144;49.920;18.730;2022-07-19T01:23:43;5.97;;;3.53;;
42514;SDS011;28144;49.920;18.730;2022-07-19T01:26:09;12.57;;;4.03;;
42514;SDS011;28144;49.920;18.730;2022-07-19T01:28:35;9.00;;;3.77;;
42514;SDS011;28144;49.920;18.730;2022-07-19T01:31:00;12.50;;;4.33;;
42514;SDS011;28144;49.920;18.730;2022-07-19T01:33:26;10.23;;;3.77;;
42514;SDS011;28144;49.920;18.730;2022-07-19T01:35:51;12.23;;;3.87;;
42514;SDS011;28144;49.920;18.730;2022-07-19T01:38:17;10.70;;;4.50;;
42514;SDS011;28144;49.920;18.730;2022-07-19T01:40:43;10.77;;;4.70;;
42514;SDS011;28144;49.920;18.730;2022-07-19T01:43:08;8.57;;;3.80;;
42514;SDS011;28144;49.920;18.730;2022-07-19T01:45:34;9.32;;;3.88;;
42514;SDS011;28144;49.920;18.730;2022-07-19T01:48:00;10.03;;;4.43;;
42514;SDS011;28144;49.920;18.730;2022-07-19T01:50:26;16.70;;;5.75;;
42514;SDS011;28144;49.920;18.730;2022-07-19T01:52:52;8.75;;;3.90;;
42514;SDS011;28144;49.920;18.730;2022-07-19T01:55:19;9.48;;;3.78;;
42514;SDS011;28144;49.920;18.730;2022-07-19T01:57:45;12.15;;;4.20;;
42514;SDS011;28144;49.920;18.730;2022-07-19T02:00:11;8.13;;;4.40;;
42514;SDS011;28144;49.920;18.730;2022-07-19T02:02:37;8.35;;;3.83;;
42514;SDS011;28144;49.920;18.730;2022-07-19T02:05:03;17.10;;;4.07;;
42514;SDS011;28144;49.920;18.730;2022-07-19T02:07:29;12.30;;;3.50;;
42514;SDS011;28144;49.920;18.730;2022-07-19T02:09:58;11.43;;;3.43;;
42514;SDS011;28144;49.920;18.730;2022-07-19T02:12:24;9.80;;;4.30;;
42514;SDS011;28144;49.920;18.730;2022-07-19T02:14:50;15.68;;;4.38;;
42514;SDS011;28144;49.920;18.730;2022-07-19T02:17:15;9.90;;;4.70;;
42514;SDS011;28144;49.920;18.730;2022-07-19T02:19:41;10.43;;;5.13;;
42514;SDS011;28144;49.920;18.730;2022-07-19T02:22:07;11.27;;;4.07;;
42514;SDS011;28144;49.920;18.730;2022-07-19T02:24:32;13.37;;;4.30;;
42514;SDS011;28144;49.920;18.730;2022-07-19T02:26:58;13.57;;;5.17;;
42514;SDS011;28144;49.920;18.730;2022-07-19T02:29:24;14.90;;;5.93;;
42514;SDS011;28144;49.920;18.730;2022-07-19T02:31:49;10.43;;;4.73;;
42514;SDS011;28144;49.920;18.730;2022-07-19T02:34:15;14.77;;;4.53;;
42514;SDS011;28144;49.920;18.730;2022-07-19T02:36:41;13.77;;;4.13;;
42514;SDS011;28144;49.920;18.730;2022-07-19T02:39:06;10.57;;;4.87;;
42514;SDS011;28144;49.920;18.730;2022-07-19T02:41:32;12.50;;;4.13;;
42514;SDS011;28144;49.920;18.730;2022-07-19T02:43:58;15.03;;;5.43;;
42514;SDS011;28144;49.920;18.730;2022-07-19T02:46:23;21.47;;;5.20;;
42514;SDS011;28144;49.920;18.730;2022-07-19T02:48:49;15.20;;;4.87;;
42514;SDS011;28144;49.920;18.730;2022-07-19T02:51:15;13.73;;;5.03;;
42514;SDS011;28144;49.920;18.730;2022-07-19T02:53:41;11.70;;;4.90;;
42514;SDS011;28144;49.920;18.730;2022-07-19T02:56:06;13.03;;;5.33;;
42514;SDS011;28144;49.920;18.730;2022-07-19T02:58:32;17.20;;;4.83;;
42514;SDS011;28144;49.920;18.730;2022-07-19T03:00:58;16.30;;;5.50;;
42514;SDS011;28144;49.920;18.730;2022-07-19T03:03:23;19.73;;;4.93;;
42514;SDS011;28144;49.920;18.730;2022-07-19T03:06:08;16.60;;;5.30;;
42514;SDS011;28144;49.920;18.730;2022-07-19T03:08:33;22.57;;;4.97;;
42514;SDS011;28144;49.920;18.730;2022-07-19T03:10:59;14.33;;;5.07;;
42514;SDS011;28144;49.920;18.730;2022-07-19T03:13:25;19.33;;;5.20;;
42514;SDS011;28144;49.920;18.730;2022-07-19T03:15:50;13.70;;;4.90;;
42514;SDS011;28144;49.920;18.730;2022-07-19T03:18:16;8.97;;;4.67;;
42514;SDS011;28144;49.920;18.730;2022-07-19T03:20:42;14.40;;;4.87;;
42514;SDS011;28144;49.920;18.730;2022-07-19T03:23:07;11.67;;;5.03;;
42514;SDS011;28144;49.920;18.730;2022-07-19T03:25:33;12.27;;;5.10;;
42514;SDS011;28144;49.920;18.730;2022-07-19T03:27:59;14.43;;;5.73;;
42514;SDS011;28144;49.920;18.730;2022-07-19T03:30:24;16.17;;;5.30;;
42514;SDS011;28144;49.920;18.730;2022-07-19T03:32:50;20.30;;;4.93;;
42514;SDS011;28144;49.920;18.730;2022-07-19T03:35:16;15.98;;;5.35;;
42514;SDS011;28144;49.920;18.730;2022-07-19T03:37:42;17.67;;;6.07;;
42514;SDS011;28144;49.920;18.730;2022-07-19T03:40:08;14.53;;;6.23;;
42514;SDS011;28144;49.920;18.730;2022-07-19T03:45:00;13.23;;;4.18;;
42514;SDS011;28144;49.920;18.730;2022-07-19T03:47:25;17.43;;;5.30;;
42514;SDS011;28144;49.920;18.730;2022-07-19T03:49:51;29.40;;;8.60;;
42514;SDS011;28144;49.920;18.730;2022-07-19T03:52:17;20.07;;;5.33;;
42514;SDS011;28144;49.920;18.730;2022-07-19T03:54:43;18.90;;;5.40;;
42514;SDS011;28144;49.920;18.730;2022-07-19T03:57:08;15.73;;;4.90;;
42514;SDS011;28144;49.920;18.730;2022-07-19T03:59:34;19.93;;;4.87;;
42514;SDS011;28144;49.920;18.730;2022-07-19T04:02:00;22.73;;;5.03;;
42514;SDS011;28144;49.920;18.730;2022-07-19T04:04:25;14.67;;;4.90;;
42514;SDS011;28144;49.920;18.730;2022-07-19T04:06:51;16.63;;;4.20;;
42514;SDS011;28144;49.920;18.730;2022-07-19T04:09:17;23.83;;;4.13;;
42514;SDS011;28144;49.920;18.730;2022-07-19T04:11:43;17.80;;;4.20;;
42514;SDS011;28144;49.920;18.730;2022-07-19T04:14:08;16.83;;;4.53;;
42514;SDS011;28144;49.920;18.730;2022-07-19T04:16:34;12.95;;;3.72;;
42514;SDS011;28144;49.920;18.730;2022-07-19T04:19:00;15.70;;;4.05;;
42514;SDS011;28144;49.920;18.730;2022-07-19T04:21:26;16.80;;;4.63;;
42514;SDS011;28144;49.920;18.730;2022-07-19T04:23:51;12.17;;;4.13;;
42514;SDS011;28144;49.920;18.730;2022-07-19T04:26:17;17.33;;;4.57;;
42514;SDS011;28144;49.920;18.730;2022-07-19T04:28:43;16.63;;;4.60;;
42514;SDS011;28144;49.920;18.730;2022-07-19T04:31:09;9.68;;;3.88;;
42514;SDS011;28144;49.920;18.730;2022-07-19T04:33:34;15.13;;;4.38;;
42514;SDS011;28144;49.920;18.730;2022-07-19T04:36:00;17.20;;;4.17;;
42514;SDS011;28144;49.920;18.730;2022-07-19T04:38:26;12.10;;;4.20;;
42514;SDS011;28144;49.920;18.730;2022-07-19T04:40:52;10.85;;;4.20;;
42514;SDS011;28144;49.920;18.730;2022-07-19T04:43:17;11.80;;;3.77;;
42514;SDS011;28144;49.920;18.730;2022-07-19T04:45:43;11.95;;;4.63;;
42514;SDS011;28144;49.920;18.730;2022-07-19T04:50:35;8.30;;;4.10;;
42514;SDS011;28144;49.920;18.730;2022-07-19T04:53:01;11.88;;;4.25;;
42514;SDS011;28144;49.920;18.730;2022-07-19T04:55:27;10.65;;;4.75;;
42514;SDS011;28144;49.920;18.730;2022-07-19T04:57:53;12.80;;;5.20;;
42514;SDS011;28144;49.920;18.730;2022-07-19T05:00:18;11.93;;;5.27;;
42514;SDS011;28144;49.920;18.730;2022-07-19T05:02:44;12.02;;;4.85;;
42514;SDS011;28144;49.920;18.730;2022-07-19T05:05:10;13.25;;;4.00;;
42514;SDS011;28144;49.920;18.730;2022-07-19T05:07:36;10.55;;;4.30;;
42514;SDS011;28144;49.920;18.730;2022-07-19T05:10:03;11.70;;;4.10;;
42514;SDS011;28144;49.920;18.730;2022-07-19T05:12:29;12.43;;;4.47;;
42514;SDS011;28144;49.920;18.730;2022-07-19T05:14:55;9.63;;;3.88;;
42514;SDS011;28144;49.920;18.730;2022-07-19T05:17:21;10.13;;;3.95;;
42514;SDS011;28144;49.920;18.730;2022-07-19T05:19:46;9.67;;;4.00;;
42514;SDS011;28144;49.920;18.730;2022-07-19T05:22:12;10.57;;;4.10;;
42514;SDS011;28144;49.920;18.730;2022-07-19T05:24:38;9.98;;;3.85;;
42514;SDS011;28144;49.920;18.730;2022-07-19T05:27:04;8.20;;;3.58;;
42514;SDS011;28144;49.920;18.730;2022-07-19T05:29:29;8.77;;;4.00;;
42514;SDS011;28144;49.920;18.730;2022-07-19T05:31:55;11.75;;;3.40;;
42514;SDS011;28144;49.920;18.730;2022-07-19T05:34:21;6.93;;;2.97;;
42514;SDS011;28144;49.920;18.730;2022-07-19T05:36:46;8.75;;;3.80;;
42514;SDS011;28144;49.920;18.730;2022-07-19T05:39:12;9.68;;;3.55;;
42514;SDS011;28144;49.920;18.730;2022-07-19T05:41:38;7.78;;;3.50;;
42514;SDS011;28144;49.920;18.730;2022-07-19T05:44:03;7.20;;;3.45;;
42514;SDS011;28144;49.920;18.730;2022-07-19T05:46:29;14.68;;;3.88;;
42514;SDS011;28144;49.920;18.730;2022-07-19T05:48:55;9.55;;;3.00;;
42514;SDS011;28144;49.920;18.730;2022-07-19T05:51:20;10.95;;;3.95;;
42514;SDS011;28144;49.920;18.730;2022-07-19T05:53:46;8.48;;;3.30;;
42514;SDS011;28144;49.920;18.730;2022-07-19T05:56:12;16.00;;;3.03;;
42514;SDS011;28144;49.920;18.730;2022-07-19T05:58:38;9.75;;;2.97;;
42514;SDS011;28144;49.920;18.730;2022-07-19T06:01:04;9.50;;;3.10;;
42514;SDS011;28144;49.920;18.730;2022-07-19T06:03:46;7.53;;;3.10;;
42514;SDS011;28144;49.920;18.730;2022-07-19T06:06:12;9.15;;;2.60;;
42514;SDS011;28144;49.920;18.730;2022-07-19T06:08:39;4.47;;;2.40;;
42514;SDS011;28144;49.920;18.730;2022-07-19T06:11:05;12.48;;;3.10;;
42514;SDS011;28144;49.920;18.730;2022-07-19T06:13:31;7.70;;;2.90;;
42514;SDS011;28144;49.920;18.730;2022-07-19T06:15:56;4.75;;;2.45;;
42514;SDS011;28144;49.920;18.730;2022-07-19T06:18:22;11.65;;;3.13;;
42514;SDS011;28144;49.920;18.730;2022-07-19T06:20:48;6.03;;;2.55;;
42514;SDS011;28144;49.920;18.730;2022-07-19T06:23:14;6.15;;;2.80;;
42514;SDS011;28144;49.920;18.730;2022-07-19T06:25:39;7.07;;;2.30;;
42514;SDS011;28144;49.920;18.730;2022-07-19T06:28:05;5.82;;;2.28;;
42514;SDS011;28144;49.920;18.730;2022-07-19T06:30:31;4.32;;;2.30;;
42514;SDS011;28144;49.920;18.730;2022-07-19T06:32:56;9.27;;;2.45;;
42514;SDS011;28144;49.920;18.730;2022-07-19T06:35:23;7.78;;;2.50;;
42514;SDS011;28144;49.920;18.730;2022-07-19T06:37:49;3.63;;;2.33;;
42514;SDS011;28144;49.920;18.730;2022-07-19T06:40:15;9.45;;;2.38;;
42514;SDS011;28144;49.920;18.730;2022-07-19T06:42:41;6.93;;;2.45;;
42514;SDS011;28144;49.920;18.730;2022-07-19T06:45:07;10.90;;;2.63;;
42514;SDS011;28144;49.920;18.730;2022-07-19T06:47:34;5.90;;;2.03;;
42514;SDS011;28144;49.920;18.730;2022-07-19T06:50:00;5.38;;;2.00;;
42514;SDS011;28144;49.920;18.730;2022-07-19T06:52:26;6.65;;;2.63;;
42514;SDS011;28144;49.920;18.730;2022-07-19T06:54:52;9.27;;;2.60;;
42514;SDS011;28144;49.920;18.730;2022-07-19T06:57:17;9.15;;;2.10;;
42514;SDS011;28144;49.920;18.730;2022-07-19T06:59:43;4.35;;;2.00;;
42514;SDS011;28144;49.920;18.730;2022-07-19T07:02:09;5.82;;;2.33;;
42514;SDS011;28144;49.920;18.730;2022-07-19T07:04:34;5.93;;;2.45;;
42514;SDS011;28144;49.920;18.730;2022-07-19T07:07:00;6.05;;;2.15;;
42514;SDS011;28144;49.920;18.730;2022-07-19T07:09:26;6.43;;;2.20;;
42514;SDS011;28144;49.920;18.730;2022-07-19T07:11:51;5.22;;;2.35;;
42514;SDS011;28144;49.920;18.730;2022-07-19T07:14:17;5.70;;;2.33;;
42514;SDS011;28144;49.920;18.730;2022-07-19T07:16:43;6.60;;;2.40;;
42514;SDS011;28144;49.920;18.730;2022-07-19T07:19:09;7.40;;;3.47;;
42514;SDS011;28144;49.920;18.730;2022-07-19T07:21:35;8.93;;;2.90;;
42514;SDS011;28144;49.920;18.730;2022-07-19T07:24:04;8.65;;;2.42;;
42514;SDS011;28144;49.920;18.730;2022-07-19T07:26:31;4.47;;;2.25;;
42514;SDS011;28144;49.920;18.730;2022-07-19T07:28:57;6.10;;;2.75;;
42514;SDS011;28144;49.920;18.730;2022-07-19T07:31:23;5.57;;;2.50;;
42514;SDS011;28144;49.920;18.730;2022-07-19T07:36:15;5.55;;;2.25;;
42514;SDS011;28144;49.920;18.730;2022-07-19T07:38:41;5.60;;;2.65;;
42514;SDS011;28144;49.920;18.730;2022-07-19T07:41:07;6.95;;;1.88;;
42514;SDS011;28144;49.920;18.730;2022-07-19T07:45:59;4.38;;;2.17;;
42514;SDS011;28144;49.920;18.730;2022-07-19T07:48:24;5.53;;;2.40;;
42514;SDS011;28144;49.920;18.730;2022-07-19T07:50:50;4.18;;;2.05;;
42514;SDS011;28144;49.920;18.730;2022-07-19T07:53:16;5.60;;;1.98;;
42514;SDS011;28144;49.920;18.730;2022-07-19T07:55:42;6.93;;;2.25;;
42514;SDS011;28144;49.920;18.730;2022-07-19T07:58:08;7.57;;;2.08;;
42514;SDS011;28144;49.920;18.730;2022-07-19T08:00:35;5.45;;;1.70;;
42514;SDS011;28144;49.920;18.730;2022-07-19T08:03:01;8.88;;;2.80;;
42514;SDS011;28144;49.920;18.730;2022-07-19T08:07:53;7.68;;;2.50;;
42514;SDS011;28144;49.920;18.730;2022-07-19T08:10:24;7.18;;;2.60;;
42514;SDS011;28144;49.920;18.730;2022-07-19T08:12:52;8.85;;;1.83;;
42514;SDS011;28144;49.920;18.730;2022-07-19T08:15:17;5.95;;;2.30;;
42514;SDS011;28144;49.920;18.730;2022-07-19T08:17:44;6.22;;;2.38;;
42514;SDS011;28144;49.920;18.730;2022-07-19T08:20:10;7.28;;;2.42;;
42514;SDS011;28144;49.920;18.730;2022-07-19T08:22:36;6.43;;;2.13;;
42514;SDS011;28144;49.920;18.730;2022-07-19T08:27:27;4.57;;;1.80;;
42514;SDS011;28144;49.920;18.730;2022-07-19T08:29:53;4.57;;;1.70;;
42514;SDS011;28144;49.920;18.730;2022-07-19T08:32:19;3.45;;;1.77;;
42514;SDS011;28144;49.920;18.730;2022-07-19T08:34:44;9.57;;;2.10;;
42514;SDS011;28144;49.920;18.730;2022-07-19T08:37:10;4.75;;;2.28;;
42514;SDS011;28144;49.920;18.730;2022-07-19T08:39:36;10.60;;;2.15;;
42514;SDS011;28144;49.920;18.730;2022-07-19T08:46:54;5.88;;;1.50;;
42514;SDS011;28144;49.920;18.730;2022-07-19T08:51:55;4.18;;;1.60;;
42514;SDS011;28144;49.920;18.730;2022-07-19T08:54:22;3.72;;;1.75;;
42514;SDS011;28144;49.920;18.730;2022-07-19T08:59:32;7.28;;;1.90;;
42514;SDS011;28144;49.920;18.730;2022-07-19T09:01:57;4.07;;;1.80;;
42514;SDS011;28144;49.920;18.730;2022-07-19T09:06:51;2.63;;;1.50;;
42514;SDS011;28144;49.920;18.730;2022-07-19T09:09:18;4.65;;;1.80;;
42514;SDS011;28144;49.920;18.730;2022-07-19T09:11:46;5.65;;;1.73;;
42514;SDS011;28144;49.920;18.730;2022-07-19T09:16:48;4.53;;;2.00;;
42514;SDS011;28144;49.920;18.730;2022-07-19T09:19:14;5.22;;;1.50;;
42514;SDS011;28144;49.920;18.730;2022-07-19T09:24:20;14.85;;;1.80;;
42514;SDS011;28144;49.920;18.730;2022-07-19T09:27:08;3.47;;;1.40;;
42514;SDS011;28144;49.920;18.730;2022-07-19T09:29:35;8.27;;;1.65;;
42514;SDS011;28144;49.920;18.730;2022-07-19T09:34:36;5.22;;;1.65;;
42514;SDS011;28144;49.920;18.730;2022-07-19T09:37:08;6.57;;;1.50;;
42514;SDS011;28144;49.920;18.730;2022-07-19T09:39:39;3.65;;;1.70;;
42514;SDS011;28144;49.920;18.730;2022-07-19T09:42:07;7.22;;;2.10;;
42514;SDS011;28144;49.920;18.730;2022-07-19T09:44:34;3.45;;;1.30;;
42514;SDS011;28144;49.920;18.730;2022-07-19T09:49:25;7.63;;;1.67;;
42514;SDS011;28144;49.920;18.730;2022-07-19T09:51:52;5.63;;;1.40;;
42514;SDS011;28144;49.920;18.730;2022-07-19T09:54:20;9.77;;;2.17;;
42514;SDS011;28144;49.920;18.730;2022-07-19T09:56:47;7.40;;;1.60;;
42514;SDS011;28144;49.920;18.730;2022-07-19T09:59:16;11.18;;;1.80;;
42514;SDS011;28144;49.920;18.730;2022-07-19T10:01:42;7.82;;;1.65;;
42514;SDS011;28144;49.920;18.730;2022-07-19T10:04:10;6.50;;;1.77;;
42514;SDS011;28144;49.920;18.730;2022-07-19T10:06:38;6.00;;;1.80;;
42514;SDS011;28144;49.920;18.730;2022-07-19T10:09:05;8.55;;;1.70;;
42514;SDS011;28144;49.920;18.730;2022-07-19T10:11:33;2.90;;;1.38;;
42514;SDS011;28144;49.920;18.730;2022-07-19T10:14:07;7.15;;;1.80;;
42514;SDS011;28144;49.920;18.730;2022-07-19T10:19:33;4.40;;;1.63;;
42514;SDS011;28144;49.920;18.730;2022-07-19T10:22:11;5.70;;;1.50;;
42514;SDS011;28144;49.920;18.730;2022-07-19T10:24:42;2.78;;;1.63;;
42514;SDS011;28144;49.920;18.730;2022-07-19T10:27:10;2.78;;;1.77;;
42514;SDS011;28144;49.920;18.730;2022-07-19T10:29:37;3.22;;;1.50;;
42514;SDS011;28144;49.920;18.730;2022-07-19T10:34:29;6.32;;;1.65;;
42514;SDS011;28144;49.920;18.730;2022-07-19T10:39:21;2.40;;;1.60;;
42514;SDS011;28144;49.920;18.730;2022-07-19T10:49:49;5.20;;;1.50;;
42514;SDS011;28144;49.920;18.730;2022-07-19T10:58:31;8.15;;;1.65;;
42514;SDS011;28144;49.920;18.730;2022-07-19T11:05:52;5.20;;;1.67;;
42514;SDS011;28144;49.920;18.730;2022-07-19T11:08:38;9.43;;;1.75;;
42514;SDS011;28144;49.920;18.730;2022-07-19T11:13:50;3.25;;;1.50;;
42514;SDS011;28144;49.920;18.730;2022-07-19T11:16:18;2.10;;;1.25;;
42514;SDS011;28144;49.920;18.730;2022-07-19T11:18:44;4.45;;;1.70;;
42514;SDS011;28144;49.920;18.730;2022-07-19T11:21:11;5.53;;;1.77;;
42514;SDS011;28144;49.920;18.730;2022-07-19T11:23:39;4.63;;;1.83;;
42514;SDS011;28144;49.920;18.730;2022-07-19T11:28:37;6.60;;;1.45;;
42514;SDS011;28144;49.920;18.730;2022-07-19T11:31:11;3.15;;;1.58;;
42514;SDS011;28144;49.920;18.730;2022-07-19T11:33:41;3.88;;;1.80;;
42514;SDS011;28144;49.920;18.730;2022-07-19T11:36:07;4.35;;;1.88;;
42514;SDS011;28144;49.920;18.730;2022-07-19T11:43:41;9.43;;;1.70;;
42514;SDS011;28144;49.920;18.730;2022-07-19T11:46:07;3.75;;;1.33;;
42514;SDS011;28144;49.920;18.730;2022-07-19T11:48:33;5.35;;;2.00;;
42514;SDS011;28144;49.920;18.730;2022-07-19T11:53:24;4.10;;;1.50;;
42514;SDS011;28144;49.920;18.730;2022-07-19T11:55:50;5.93;;;1.50;;
42514;SDS011;28144;49.920;18.730;2022-07-19T12:00:41;11.07;;;1.70;;
42514;SDS011;28144;49.920;18.730;2022-07-19T12:03:12;4.57;;;1.75;;
42514;SDS011;28144;49.920;18.730;2022-07-19T12:05:39;2.22;;;1.30;;
42514;SDS011;28144;49.920;18.730;2022-07-19T12:08:06;3.88;;;1.60;;
42514;SDS011;28144;49.920;18.730;2022-07-19T12:10:44;3.90;;;1.50;;
42514;SDS011;28144;49.920;18.730;2022-07-19T12:13:12;5.28;;;1.63;;
42514;SDS011;28144;49.920;18.730;2022-07-19T12:15:47;5.40;;;1.88;;
42514;SDS011;28144;49.920;18.730;2022-07-19T12:18:55;4.40;;;1.63;;
42514;SDS011;28144;49.920;18.730;2022-07-19T12:21:39;4.03;;;1.40;;
42514;SDS011;28144;49.920;18.730;2022-07-19T12:26:34;2.92;;;1.67;;
42514;SDS011;28144;49.920;18.730;2022-07-19T12:29:00;5.35;;;1.60;;
42514;SDS011;28144;49.920;18.730;2022-07-19T12:31:26;3.80;;;1.33;;
42514;SDS011;28144;49.920;18.730;2022-07-19T12:34:01;4.03;;;1.48;;
42514;SDS011;28144;49.920;18.730;2022-07-19T12:36:33;4.22;;;1.90;;
42514;SDS011;28144;49.920;18.730;2022-07-19T12:38:59;5.57;;;1.40;;
42514;SDS011;28144;49.920;18.730;2022-07-19T12:41:25;4.07;;;1.38;;
42514;SDS011;28144;49.920;18.730;2022-07-19T12:43:51;6.13;;;2.05;;
42514;SDS011;28144;49.920;18.730;2022-07-19T12:46:16;3.47;;;1.70;;
42514;SDS011;28144;49.920;18.730;2022-07-19T12:48:42;6.30;;;2.17;;
42514;SDS011;28144;49.920;18.730;2022-07-19T12:51:10;3.13;;;1.85;;
42514;SDS011;28144;49.920;18.730;2022-07-19T12:53:35;6.15;;;1.80;;
42514;SDS011;28144;49.920;18.730;2022-07-19T12:56:01;5.70;;;1.90;;
42514;SDS011;28144;49.920;18.730;2022-07-19T12:58:27;7.72;;;1.95;;
42514;SDS011;28144;49.920;18.730;2022-07-19T13:01:12;4.45;;;1.80;;
42514;SDS011;28144;49.920;18.730;2022-07-19T13:03:40;7.10;;;1.63;;
42514;SDS011;28144;49.920;18.730;2022-07-19T13:06:07;4.93;;;1.70;;
42514;SDS011;28144;49.920;18.730;2022-07-19T13:08:33;2.88;;;1.50;;
42514;SDS011;28144;49.920;18.730;2022-07-19T13:13:25;3.60;;;1.58;;
42514;SDS011;28144;49.920;18.730;2022-07-19T13:15:51;6.07;;;1.88;;
42514;SDS011;28144;49.920;18.730;2022-07-19T13:18:17;2.95;;;1.60;;
42514;SDS011;28144;49.920;18.730;2022-07-19T13:20:43;4.75;;;1.60;;
42514;SDS011;28144;49.920;18.730;2022-07-19T13:23:09;7.28;;;1.90;;
42514;SDS011;28144;49.920;18.730;2022-07-19T13:25:35;5.20;;;1.50;;
42514;SDS011;28144;49.920;18.730;2022-07-19T13:28:01;5.65;;;1.92;;
42514;SDS011;28144;49.920;18.730;2022-07-19T13:30:28;4.90;;;1.95;;
42514;SDS011;28144;49.920;18.730;2022-07-19T13:32:54;2.90;;;1.52;;
42514;SDS011;28144;49.920;18.730;2022-07-19T13:35:20;3.28;;;1.80;;
42514;SDS011;28144;49.920;18.730;2022-07-19T13:37:46;3.88;;;1.77;;
42514;SDS011;28144;49.920;18.730;2022-07-19T13:40:14;5.20;;;2.20;;
42514;SDS011;28144;49.920;18.730;2022-07-19T13:42:40;3.85;;;2.15;;
42514;SDS011;28144;49.920;18.730;2022-07-19T13:45:05;5.50;;;1.60;;
42514;SDS011;28144;49.920;18.730;2022-07-19T13:47:32;5.85;;;1.90;;
42514;SDS011;28144;49.920;18.730;2022-07-19T13:49:58;3.63;;;1.80;;
42514;SDS011;28144;49.920;18.730;2022-07-19T13:52:24;4.07;;;2.55;;
42514;SDS011;28144;49.920;18.730;2022-07-19T13:54:50;8.93;;;2.63;;
42514;SDS011;28144;49.920;18.730;2022-07-19T13:57:16;4.22;;;2.47;;
42514;SDS011;28144;49.920;18.730;2022-07-19T13:59:44;7.28;;;2.40;;
42514;SDS011;28144;49.920;18.730;2022-07-19T14:02:16;13.93;;;3.30;;
42514;SDS011;28144;49.920;18.730;2022-07-19T14:04:42;5.60;;;2.47;;
42514;SDS011;28144;49.920;18.730;2022-07-19T14:07:07;7.78;;;2.75;;
42514;SDS011;28144;49.920;18.730;2022-07-19T14:09:33;3.38;;;1.77;;
42514;SDS011;28144;49.920;18.730;2022-07-19T14:12:01;6.90;;;2.08;;
42514;SDS011;28144;49.920;18.730;2022-07-19T14:16:52;5.97;;;2.67;;
42514;SDS011;28144;49.920;18.730;2022-07-19T14:19:18;5.57;;;2.22;;
42514;SDS011;28144;49.920;18.730;2022-07-19T14:24:09;4.97;;;2.58;;
42514;SDS011;28144;49.920;18.730;2022-07-19T14:29:01;7.90;;;2.20;;
42514;SDS011;28144;49.920;18.730;2022-07-19T14:33:52;3.72;;;2.03;;
42514;SDS011;28144;49.920;18.730;2022-07-19T14:36:18;6.78;;;2.10;;
42514;SDS011;28144;49.920;18.730;2022-07-19T14:38:44;7.18;;;2.25;;
42514;SDS011;28144;49.920;18.730;2022-07-19T14:41:09;6.53;;;2.08;;
42514;SDS011;28144;49.920;18.730;2022-07-19T14:43:35;9.18;;;2.22;;
42514;SDS011;28144;49.920;18.730;2022-07-19T14:46:01;3.45;;;2.05;;
42514;SDS011;28144;49.920;18.730;2022-07-19T14:48:26;4.65;;;2.00;;
42514;SDS011;28144;49.920;18.730;2022-07-19T14:50:53;6.13;;;2.25;;
42514;SDS011;28144;49.920;18.730;2022-07-19T14:53:19;5.70;;;1.58;;
42514;SDS011;28144;49.920;18.730;2022-07-19T14:55:45;9.00;;;2.20;;
42514;SDS011;28144;49.920;18.730;2022-07-19T14:58:10;4.38;;;2.22;;
42514;SDS011;28144;49.920;18.730;2022-07-19T15:00:36;7.85;;;2.38;;
42514;SDS011;28144;49.920;18.730;2022-07-19T15:03:02;3.13;;;2.10;;
42514;SDS011;28144;49.920;18.730;2022-07-19T15:05:28;6.55;;;1.85;;
42514;SDS011;28144;49.920;18.730;2022-07-19T15:07:54;6.60;;;2.13;;
42514;SDS011;28144;49.920;18.730;2022-07-19T15:10:20;4.97;;;1.73;;
42514;SDS011;28144;49.920;18.730;2022-07-19T15:12:45;3.92;;;2.05;;
42514;SDS011;28144;49.920;18.730;2022-07-19T15:15:11;8.38;;;2.00;;
42514;SDS011;28144;49.920;18.730;2022-07-19T15:17:37;3.97;;;1.63;;
42514;SDS011;28144;49.920;18.730;2022-07-19T15:20:03;3.67;;;1.77;;
42514;SDS011;28144;49.920;18.730;2022-07-19T15:22:29;6.32;;;2.30;;
42514;SDS011;28144;49.920;18.730;2022-07-19T15:24:55;2.60;;;1.80;;
42514;SDS011;28144;49.920;18.730;2022-07-19T15:27:20;4.82;;;1.60;;
42514;SDS011;28144;49.920;18.730;2022-07-19T15:29:46;2.92;;;1.70;;
42514;SDS011;28144;49.920;18.730;2022-07-19T15:32:12;3.92;;;2.00;;
42514;SDS011;28144;49.920;18.730;2022-07-19T15:34:38;5.63;;;2.20;;
42514;SDS011;28144;49.920;18.730;2022-07-19T15:37:04;5.88;;;1.80;;
42514;SDS011;28144;49.920;18.730;2022-07-19T15:39:30;5.97;;;1.63;;
42514;SDS011;28144;49.920;18.730;2022-07-19T15:41:55;5.65;;;1.80;;
42514;SDS011;28144;49.920;18.730;2022-07-19T15:44:21;4.35;;;1.63;;
42514;SDS011;28144;49.920;18.730;2022-07-19T15:46:47;4.35;;;2.00;;
42514;SDS011;28144;49.920;18.730;2022-07-19T15:49:13;3.03;;;1.70;;
42514;SDS011;28144;49.920;18.730;2022-07-19T15:51:38;3.58;;;1.63;;
42514;SDS011;28144;49.920;18.730;2022-07-19T15:54:05;2.67;;;1.63;;
42514;SDS011;28144;49.920;18.730;2022-07-19T15:56:32;7.38;;;1.88;;
42514;SDS011;28144;49.920;18.730;2022-07-19T15:58:58;4.90;;;1.85;;
42514;SDS011;28144;49.920;18.730;2022-07-19T16:01:24;3.03;;;1.92;;